Time;durP1;ratioP1;P1;durP2;ratioP2;P2;SDS_P1;SDS_P2;PMS_P1;PMS_P2;Temp;Humidity;BMP_temperature;BMP_pressure;BME280_temperature;BME280_humidity;BME280_pressure;Samples;Min_cycle;Max_cycle;Signal;HPM_P1;HPM_P2
2023/01/05 00:00:34;;;;;;;;;;;18.50;54.00;;;;;;5070668;28;19913;-52
2023/01/05 00:02:59;;;;;;;;;;;18.50;54.00;;;;;;5071320;28;19999;-53
2023/01/05 00:05:24;;;;;;;;;;;18.50;54.00;;;;;;5071342;28;19970;-53
2023/01/05 00:07:50;;;;;;;;;;;18.40;54.10;;;;;;5069903;28;19924;-53
2023/01/05 00:23:57;;;;;;;;;;;18.30;54.10;;;;;;5071737;28;19919;-53
2023/01/05 00:26:22;;;;;;;;;;;18.30;54.20;;;;;;5062703;28;19927;-53
2023/01/05 00:28:47;;;;;;;;;;;18.30;54.20;;;;;;5064438;28;19943;-53
2023/01/05 00:31:13;;;;;;;;;;;18.30;54.30;;;;;;5068967;28;19935;-53
2023/01/05 00:33:38;;;;;;;;;;;18.30;54.40;;;;;;5072757;28;19916;-53
2023/01/05 00:36:07;;;;;;;;;;;18.20;54.40;;;;;;5064994;28;20303;-53
2023/01/05 00:38:33;;;;;;;;;;;18.20;54.40;;;;;;5065152;28;20371;-53
2023/01/05 00:40:58;;;;;;;;;;;18.20;54.40;;;;;;5064251;28;19913;-53
2023/01/05 00:43:24;;;;;;;;;;;18.20;54.40;;;;;;5062231;28;19921;-53
2023/01/05 00:45:49;;;;;;;;;;;18.20;54.40;;;;;;5067921;28;19922;-53
2023/01/05 00:48:15;;;;;;;;;;;18.20;54.50;;;;;;5067808;28;19963;-53
2023/01/05 00:50:40;;;;;;;;;;;18.10;54.50;;;;;;5068329;28;19956;-53
2023/01/05 00:53:05;;;;;;;;;;;18.10;54.50;;;;;;5068735;28;19954;-53
2023/01/05 00:55:31;;;;;;;;;;;18.10;54.50;;;;;;5070203;28;19948;-53
2023/01/05 00:57:56;;;;;;;;;;;18.10;54.60;;;;;;5067245;28;19916;-52
2023/01/05 01:00:22;;;;;;;;;;;18.00;54.60;;;;;;5069481;28;19965;-52
2023/01/05 01:02:49;;;;;;;;;;;18.00;54.60;;;;;;5071037;28;19913;-51
2023/01/05 01:05:14;;;;;;;;;;;18.00;54.60;;;;;;5066413;28;19920;-51
2023/01/05 01:07:40;;;;;;;;;;;18.00;54.60;;;;;;5068535;28;19913;-52
2023/01/05 01:10:06;;;;;;;;;;;18.00;54.70;;;;;;5065702;28;20023;-51
2023/01/05 01:12:31;;;;;;;;;;;18.00;54.80;;;;;;5071403;28;20338;-52
2023/01/05 01:14:56;;;;;;;;;;;17.90;54.70;;;;;;5071063;28;19935;-52
2023/01/05 01:17:22;;;;;;;;;;;17.90;54.80;;;;;;5067771;28;19935;-51
2023/01/05 01:19:47;;;;;;;;;;;17.90;54.90;;;;;;5066905;28;19924;-51
2023/01/05 01:22:13;;;;;;;;;;;17.90;54.80;;;;;;5066657;28;20355;-53
2023/01/05 01:24:38;;;;;;;;;;;17.90;54.80;;;;;;5067209;28;19931;-52
2023/01/05 01:27:04;;;;;;;;;;;17.90;54.90;;;;;;5065939;28;19917;-52
2023/01/05 01:29:29;;;;;;;;;;;17.90;54.90;;;;;;5067253;28;20413;-52
2023/01/05 01:31:55;;;;;;;;;;;17.80;54.90;;;;;;5067569;28;19938;-52
2023/01/05 01:34:20;;;;;;;;;;;17.80;54.90;;;;;;5067509;28;20342;-52
2023/01/05 01:36:46;;;;;;;;;;;17.80;54.90;;;;;;5068042;28;19916;-52
2023/01/05 01:39:11;;;;;;;;;;;17.80;54.90;;;;;;5068334;28;19924;-52
2023/01/05 01:41:36;;;;;;;;;;;17.80;54.90;;;;;;5066791;28;19916;-52
2023/01/05 01:44:22;;;;;;;;;;;17.80;55.00;;;;;;5066324;28;19916;-52
2023/01/05 01:46:47;;;;;;;;;;;17.80;55.00;;;;;;5067847;28;20015;-52
2023/01/05 01:49:13;;;;;;;;;;;17.70;55.00;;;;;;5067097;28;20022;-52
2023/01/05 01:51:40;;;;;;;;;;;17.70;55.10;;;;;;5066751;28;20003;-51
2023/01/05 01:54:06;;;;;;;;;;;17.70;55.20;;;;;;5064907;28;20003;-51
2023/01/05 01:56:34;;;;;;;;;;;17.70;55.10;;;;;;5067846;28;19916;-51
2023/01/05 01:58:59;;;;;;;;;;;17.70;55.10;;;;;;5065989;28;19935;-53
2023/01/05 02:01:25;;;;;;;;;;;17.60;55.10;;;;;;5067443;28;19916;-53
2023/01/05 02:03:50;;;;;;;;;;;17.60;55.10;;;;;;5068184;28;20173;-53
2023/01/05 02:06:15;;;;;;;;;;;17.60;55.10;;;;;;5071258;28;19913;-53
2023/01/05 02:08:41;;;;;;;;;;;17.60;55.10;;;;;;5066301;28;19920;-53
2023/01/05 02:11:25;;;;;;;;;;;17.70;55.00;;;;;;5065216;28;19946;-53
2023/01/05 02:14:05;;;;;;;;;;;17.70;54.80;;;;;;5065760;28;19916;-53
2023/01/05 02:16:37;;;;;;;;;;;17.80;54.70;;;;;;5066042;28;20423;-53
2023/01/05 02:19:17;;;;;;;;;;;18.00;54.40;;;;;;5064347;28;20007;-53
2023/01/05 02:21:47;;;;;;;;;;;18.20;54.10;;;;;;5066621;28;19935;-53
2023/01/05 02:24:24;;;;;;;;;;;18.50;53.70;;;;;;5066961;28;19913;-53
2023/01/05 02:27:00;;;;;;;;;;;18.70;52.90;;;;;;5072510;28;19961;-53
2023/01/05 02:29:26;;;;;;;;;;;19.00;52.20;;;;;;5070143;28;19967;-53
2023/01/05 02:31:51;;;;;;;;;;;19.30;51.50;;;;;;5067173;28;19966;-52
2023/01/05 02:34:16;;;;;;;;;;;19.50;51.00;;;;;;5069926;28;19951;-53
2023/01/05 02:36:45;;;;;;;;;;;19.70;50.70;;;;;;5067522;28;20019;-53
2023/01/05 02:39:19;;;;;;;;;;;19.90;50.40;;;;;;5065795;28;19920;-53
2023/01/05 02:41:49;;;;;;;;;;;20.00;50.30;;;;;;5065287;28;19924;-53
2023/01/05 02:44:16;;;;;;;;;;;20.00;49.90;;;;;;5065065;28;19997;-53
2023/01/05 02:46:41;;;;;;;;;;;20.10;50.00;;;;;;5066364;28;19969;-53
2023/01/05 02:49:07;;;;;;;;;;;20.00;50.00;;;;;;5065120;28;19916;-52
2023/01/05 02:51:34;;;;;;;;;;;19.80;50.30;;;;;;5065367;28;20007;-53
2023/01/05 02:54:01;;;;;;;;;;;19.70;50.70;;;;;;5063242;28;19924;-52
2023/01/05 02:56:29;;;;;;;;;;;19.50;50.80;;;;;;5066514;28;19919;-53
2023/01/05 02:59:00;;;;;;;;;;;19.50;50.90;;;;;;5065414;28;19916;-53
2023/01/05 03:01:29;;;;;;;;;;;19.50;50.90;;;;;;5065621;28;20018;-53
2023/01/05 03:03:59;;;;;;;;;;;19.50;50.90;;;;;;5062938;28;19989;-53
2023/01/05 03:06:27;;;;;;;;;;;19.60;50.80;;;;;;5063124;28;19916;-53
2023/01/05 03:08:56;;;;;;;;;;;19.70;50.70;;;;;;5065205;28;19916;-53
2023/01/05 03:14:08;;;;;;;;;;;19.70;50.60;;;;;;5060934;28;19939;-53
2023/01/05 03:16:34;;;;;;;;;;;19.70;50.50;;;;;;5063792;28;20415;-51
2023/01/05 03:35:44;;;;;;;;;;;19.70;50.40;;;;;;5064462;28;19923;-51
2023/01/05 03:38:09;;;;;;;;;;;19.60;50.40;;;;;;5066565;28;19916;-52
2023/01/05 03:40:35;;;;;;;;;;;19.60;50.50;;;;;;5064111;28;19919;-52
2023/01/05 03:43:01;;;;;;;;;;;19.60;50.60;;;;;;5066158;28;19957;-52
2023/01/05 03:45:30;;;;;;;;;;;19.60;50.60;;;;;;5070504;28;19913;-52
2023/01/05 03:47:56;;;;;;;;;;;19.60;50.60;;;;;;5069865;28;19912;-52
2023/01/05 03:50:21;;;;;;;;;;;19.60;50.60;;;;;;5071925;28;19923;-54
2023/01/05 03:52:47;;;;;;;;;;;19.60;50.60;;;;;;5068837;28;20364;-52
2023/01/05 03:55:12;;;;;;;;;;;19.60;50.60;;;;;;5070318;28;19919;-52
2023/01/05 03:57:37;;;;;;;;;;;19.60;50.60;;;;;;5071560;28;19916;-52
2023/01/05 04:00:03;;;;;;;;;;;19.50;50.50;;;;;;5071470;28;19919;-53
2023/01/05 04:02:29;;;;;;;;;;;19.50;50.60;;;;;;5071187;28;20007;-53
2023/01/05 04:04:54;;;;;;;;;;;19.50;50.70;;;;;;5070168;28;20383;-53
2023/01/05 04:07:19;;;;;;;;;;;19.50;50.80;;;;;;5071002;28;20418;-53
2023/01/05 04:09:45;;;;;;;;;;;19.40;50.80;;;;;;5070927;28;20715;-53
2023/01/05 04:12:10;;;;;;;;;;;19.40;50.90;;;;;;5067937;28;20416;-53
2023/01/05 04:14:36;;;;;;;;;;;19.40;51.00;;;;;;5064308;28;20015;-53
2023/01/05 04:17:01;;;;;;;;;;;19.30;50.90;;;;;;5064134;28;20003;-52
2023/01/05 04:19:26;;;;;;;;;;;19.30;50.90;;;;;;5065005;28;20019;-53
2023/01/05 04:21:52;;;;;;;;;;;19.30;51.10;;;;;;5068115;28;20058;-52
2023/01/05 04:24:17;;;;;;;;;;;19.30;51.20;;;;;;5067799;28;20008;-53
2023/01/05 04:26:43;;;;;;;;;;;19.30;51.20;;;;;;5069393;28;19963;-53
2023/01/05 04:29:09;;;;;;;;;;;19.30;51.20;;;;;;5071519;28;19924;-53
2023/01/05 04:31:34;;;;;;;;;;;19.30;51.20;;;;;;5067998;28;19942;-52
2023/01/05 04:33:59;;;;;;;;;;;19.30;51.10;;;;;;5068722;28;19938;-52
2023/01/05 04:36:25;;;;;;;;;;;19.30;50.90;;;;;;5068102;28;19936;-52
2023/01/05 04:38:50;;;;;;;;;;;19.30;50.90;;;;;;5068522;28;20355;-52
2023/01/05 04:41:16;;;;;;;;;;;19.40;50.80;;;;;;5068287;28;20227;-52
2023/01/05 04:43:41;;;;;;;;;;;19.40;50.80;;;;;;5067909;28;20063;-52
2023/01/05 04:46:06;;;;;;;;;;;19.40;50.60;;;;;;5067268;28;20014;-52
2023/01/05 04:48:32;;;;;;;;;;;19.50;50.60;;;;;;5067659;28;20357;-53
2023/01/05 04:50:57;;;;;;;;;;;19.50;50.60;;;;;;5067024;28;19920;-53
2023/01/05 04:53:23;;;;;;;;;;;19.50;50.60;;;;;;5069786;28;20271;-52
2023/01/05 04:55:49;;;;;;;;;;;19.50;50.50;;;;;;5069417;28;19917;-53
2023/01/05 04:58:14;;;;;;;;;;;19.50;50.50;;;;;;5067474;28;20460;-53
2023/01/05 05:00:40;;;;;;;;;;;19.50;50.40;;;;;;5067933;28;19932;-52
2023/01/05 05:03:05;;;;;;;;;;;19.50;50.40;;;;;;5068754;28;19958;-53
2023/01/05 05:05:31;;;;;;;;;;;19.60;50.40;;;;;;5067104;28;19912;-53
2023/01/05 05:07:56;;;;;;;;;;;19.60;50.40;;;;;;5069401;28;20006;-52
2023/01/05 05:10:21;;;;;;;;;;;19.60;50.30;;;;;;5072086;28;20019;-52
2023/01/05 05:12:47;;;;;;;;;;;19.50;50.30;;;;;;5070613;28;19919;-52
2023/01/05 05:15:12;;;;;;;;;;;19.50;50.40;;;;;;5066896;28;19919;-52
2023/01/05 05:17:38;;;;;;;;;;;19.50;50.50;;;;;;5067509;28;20380;-51
2023/01/05 05:20:04;;;;;;;;;;;19.50;50.40;;;;;;5066113;28;19916;-52
2023/01/05 05:22:30;;;;;;;;;;;19.50;50.50;;;;;;5067568;28;20019;-53
2023/01/05 05:24:55;;;;;;;;;;;19.50;50.30;;;;;;5071101;28;20007;-51
2023/01/05 05:27:20;;;;;;;;;;;19.50;50.30;;;;;;5067229;28;19912;-52
2023/01/05 05:29:46;;;;;;;;;;;19.50;50.20;;;;;;5068357;28;19916;-53
2023/01/05 05:32:11;;;;;;;;;;;19.60;50.30;;;;;;5066328;28;19962;-52
2023/01/05 05:34:37;;;;;;;;;;;19.60;50.20;;;;;;5068696;28;19921;-51
2023/01/05 05:37:02;;;;;;;;;;;19.60;50.10;;;;;;5067488;28;19958;-52
2023/01/05 05:39:28;;;;;;;;;;;19.60;50.10;;;;;;5067730;28;20364;-52
2023/01/05 05:41:53;;;;;;;;;;;19.50;50.10;;;;;;5069098;28;19920;-52
2023/01/05 05:44:18;;;;;;;;;;;19.50;50.10;;;;;;5073478;28;19916;-53
2023/01/05 05:46:44;;;;;;;;;;;19.50;50.10;;;;;;5073205;28;19916;-52
2023/01/05 05:49:09;;;;;;;;;;;19.50;50.20;;;;;;5073247;28;19921;-53
2023/01/05 05:51:35;;;;;;;;;;;19.50;50.20;;;;;;5073601;28;20265;-53
2023/01/05 05:54:00;;;;;;;;;;;19.50;50.20;;;;;;5073000;28;19913;-52
2023/01/05 05:56:26;;;;;;;;;;;19.50;50.20;;;;;;5073639;28;19975;-53
2023/01/05 05:58:51;;;;;;;;;;;19.50;50.20;;;;;;5073471;28;19920;-52
2023/01/05 06:01:16;;;;;;;;;;;19.50;50.20;;;;;;5073462;28;19919;-53
2023/01/05 06:03:42;;;;;;;;;;;19.50;50.10;;;;;;5072743;28;19912;-52
2023/01/05 06:06:07;;;;;;;;;;;19.50;50.10;;;;;;5071256;28;20002;-52
2023/01/05 06:08:33;;;;;;;;;;;19.50;50.00;;;;;;5072744;28;19944;-52
2023/01/05 06:10:58;;;;;;;;;;;19.50;50.00;;;;;;5071723;28;19912;-52
2023/01/05 06:13:23;;;;;;;;;;;19.50;49.90;;;;;;5072337;28;19931;-52
2023/01/05 06:15:49;;;;;;;;;;;19.50;50.00;;;;;;5073096;28;19916;-52
2023/01/05 06:18:15;;;;;;;;;;;19.50;50.00;;;;;;5072858;28;19924;-52
2023/01/05 06:20:40;;;;;;;;;;;19.50;49.90;;;;;;5066307;28;19959;-52
2023/01/05 06:23:05;;;;;;;;;;;19.50;50.10;;;;;;5064864;28;20383;-52
2023/01/05 06:25:31;;;;;;;;;;;19.50;50.20;;;;;;5071068;28;19917;-53
2023/01/05 06:27:57;;;;;;;;;;;19.50;50.20;;;;;;5071214;28;20364;-52
2023/01/05 06:30:22;;;;;;;;;;;19.50;50.10;;;;;;5070776;28;19954;-52
2023/01/05 06:32:48;;;;;;;;;;;19.50;50.00;;;;;;5065240;28;19920;-52
2023/01/05 06:35:13;;;;;;;;;;;19.50;50.00;;;;;;5067073;28;19912;-52
2023/01/05 06:37:39;;;;;;;;;;;19.50;50.00;;;;;;5069787;28;19919;-52
2023/01/05 06:40:04;;;;;;;;;;;19.50;50.00;;;;;;5063609;28;19917;-52
2023/01/05 06:42:30;;;;;;;;;;;19.50;50.00;;;;;;5063444;28;20011;-52
2023/01/05 06:44:56;;;;;;;;;;;19.40;50.00;;;;;;5065165;28;19924;-52
2023/01/05 06:47:21;;;;;;;;;;;19.50;50.00;;;;;;5065398;28;19917;-52
2023/01/05 06:49:47;;;;;;;;;;;19.40;50.00;;;;;;5063469;28;19931;-52
2023/01/05 06:52:12;;;;;;;;;;;19.50;50.00;;;;;;5066488;28;20461;-52
2023/01/05 06:54:38;;;;;;;;;;;19.40;50.00;;;;;;5068950;28;19934;-52
2023/01/05 06:57:03;;;;;;;;;;;19.50;50.00;;;;;;5066135;28;19935;-52
2023/01/05 06:59:29;;;;;;;;;;;19.50;49.90;;;;;;5066186;28;19978;-52
2023/01/05 07:01:54;;;;;;;;;;;19.50;49.90;;;;;;5065353;28;19916;-53
2023/01/05 07:04:19;;;;;;;;;;;19.50;49.90;;;;;;5063562;28;19969;-51
2023/01/05 07:06:45;;;;;;;;;;;19.50;49.90;;;;;;5064841;28;19912;-52
2023/01/05 07:09:10;;;;;;;;;;;19.50;49.90;;;;;;5069070;28;19939;-52
2023/01/05 07:11:36;;;;;;;;;;;19.40;49.90;;;;;;5069155;28;19918;-52
2023/01/05 07:14:01;;;;;;;;;;;19.40;49.90;;;;;;5065540;28;19940;-53
2023/01/05 07:16:26;;;;;;;;;;;19.40;50.00;;;;;;5065768;28;19912;-53
2023/01/05 07:18:52;;;;;;;;;;;19.30;50.10;;;;;;5064163;28;20318;-52
2023/01/05 07:21:17;;;;;;;;;;;19.20;50.20;;;;;;5064813;28;19944;-54
2023/01/05 07:23:43;;;;;;;;;;;19.20;50.30;;;;;;5064496;28;19943;-53
2023/01/05 07:26:08;;;;;;;;;;;19.20;50.30;;;;;;5064079;28;20337;-52
2023/01/05 07:28:34;;;;;;;;;;;19.20;50.30;;;;;;5064046;28;19923;-51
2023/01/05 07:30:59;;;;;;;;;;;19.20;50.30;;;;;;5069141;28;20016;-51
2023/01/05 07:33:25;;;;;;;;;;;19.20;50.20;;;;;;5067150;28;19920;-54
2023/01/05 07:35:50;;;;;;;;;;;19.20;50.10;;;;;;5065357;28;19928;-51
2023/01/05 07:38:16;;;;;;;;;;;19.30;50.10;;;;;;5062985;28;19921;-52
2023/01/05 07:40:41;;;;;;;;;;;19.30;50.00;;;;;;5067563;28;19923;-52
2023/01/05 07:43:07;;;;;;;;;;;19.30;49.90;;;;;;5071556;28;20451;-51
2023/01/05 07:45:32;;;;;;;;;;;19.30;49.90;;;;;;5067445;28;20406;-51
2023/01/05 07:47:58;;;;;;;;;;;19.40;49.90;;;;;;5065165;28;19955;-52
2023/01/05 07:50:24;;;;;;;;;;;19.40;49.80;;;;;;5069318;28;19917;-51
2023/01/05 07:52:49;;;;;;;;;;;19.40;49.70;;;;;;5071090;28;19923;-52
2023/01/05 07:55:15;;;;;;;;;;;19.40;49.70;;;;;;5069155;28;19921;-51
2023/01/05 07:57:40;;;;;;;;;;;19.50;49.70;;;;;;5070208;28;19919;-52
2023/01/05 08:00:06;;;;;;;;;;;19.40;49.70;;;;;;5068830;28;20328;-52
2023/01/05 08:02:32;;;;;;;;;;;19.50;49.80;;;;;;5066006;28;20049;-52
2023/01/05 08:04:57;;;;;;;;;;;19.40;49.80;;;;;;5070171;28;20279;-52
2023/01/05 08:07:23;;;;;;;;;;;19.40;49.90;;;;;;5071387;28;20390;-52
2023/01/05 08:13:58;;;;;;;;;;;19.40;50.00;;;;;;5069378;28;19919;-53
2023/01/05 08:15:18;;;;;;;;;;;19.40;50.00;;;;;;5063459;28;20021;-52
2023/01/05 08:17:44;;;;;;;;;;;19.40;50.00;;;;;;5069382;28;20051;-52
2023/01/05 08:20:09;;;;;;;;;;;19.70;49.90;;;;;;5069024;28;20007;-52
2023/01/05 08:22:35;;;;;;;;;;;20.40;48.50;;;;;;5067744;28;19924;-52
2023/01/05 08:25:01;;;;;;;;;;;21.00;47.00;;;;;;5068792;28;19916;-52
2023/01/05 08:27:26;;;;;;;;;;;21.50;45.90;;;;;;5070503;28;19923;-53
2023/01/05 08:29:52;;;;;;;;;;;21.70;45.50;;;;;;5066190;28;19955;-54
2023/01/05 08:32:17;;;;;;;;;;;21.80;45.40;;;;;;5070711;28;19997;-53
2023/01/05 08:34:43;;;;;;;;;;;21.80;45.40;;;;;;5070608;28;19912;-53
2023/01/05 08:37:08;;;;;;;;;;;21.90;45.20;;;;;;5071361;28;19913;-53
2023/01/05 08:39:34;;;;;;;;;;;21.90;45.00;;;;;;5071007;28;20026;-53
2023/01/05 08:42:00;;;;;;;;;;;22.00;44.90;;;;;;5069491;28;19920;-53
2023/01/05 08:44:25;;;;;;;;;;;22.10;44.80;;;;;;5071396;28;19931;-53
2023/01/05 08:46:51;;;;;;;;;;;22.10;44.60;;;;;;5059197;28;19919;-53
2023/01/05 08:49:16;;;;;;;;;;;22.20;44.40;;;;;;5061108;28;19916;-53
2023/01/05 08:51:42;;;;;;;;;;;22.20;44.50;;;;;;5067798;28;19921;-53
2023/01/05 08:54:07;;;;;;;;;;;22.30;44.40;;;;;;5062800;28;20276;-53
2023/01/05 08:56:33;;;;;;;;;;;22.30;44.50;;;;;;5061156;28;19912;-53
2023/01/05 08:58:58;;;;;;;;;;;22.30;44.50;;;;;;5069556;28;19908;-53
2023/01/05 09:01:24;;;;;;;;;;;22.30;44.50;;;;;;5069295;28;20387;-53
2023/01/05 09:03:49;;;;;;;;;;;22.30;44.50;;;;;;5067616;28;19969;-53
2023/01/05 09:06:15;;;;;;;;;;;22.30;44.40;;;;;;5068145;28;20415;-53
2023/01/05 09:08:40;;;;;;;;;;;22.30;44.40;;;;;;5072883;28;20003;-53
2023/01/05 09:11:06;;;;;;;;;;;22.30;44.40;;;;;;5072834;28;20374;-53
2023/01/05 09:13:32;;;;;;;;;;;22.30;44.30;;;;;;5073625;28;20003;-53
2023/01/05 09:16:02;;;;;;;;;;;22.30;44.40;;;;;;5074146;28;19939;-53
2023/01/05 09:18:27;;;;;;;;;;;22.30;44.40;;;;;;5074416;28;19912;-53
2023/01/05 09:20:56;;;;;;;;;;;22.30;44.20;;;;;;5055729;28;19959;-54
2023/01/05 09:23:21;;;;;;;;;;;22.40;44.20;;;;;;5058108;28;19920;-53
2023/01/05 09:25:46;;;;;;;;;;;22.40;44.30;;;;;;5056074;28;19909;-53
2023/01/05 09:28:12;;;;;;;;;;;22.40;44.30;;;;;;5065933;28;19991;-53
2023/01/05 09:30:37;;;;;;;;;;;22.40;44.30;;;;;;5059480;28;19912;-53
2023/01/05 09:33:03;;;;;;;;;;;22.40;44.10;;;;;;5065660;28;20308;-53
2023/01/05 09:35:28;;;;;;;;;;;22.40;44.20;;;;;;5074322;28;20390;-54
2023/01/05 09:37:54;;;;;;;;;;;22.50;44.10;;;;;;5074218;28;19912;-53
2023/01/05 09:40:19;;;;;;;;;;;22.50;44.10;;;;;;5073013;28;20009;-53
2023/01/05 09:42:46;;;;;;;;;;;22.50;44.10;;;;;;5070022;28;20000;-53
2023/01/05 09:45:11;;;;;;;;;;;22.50;44.00;;;;;;5068734;28;19908;-53
2023/01/05 09:47:38;;;;;;;;;;;22.50;44.00;;;;;;5070991;28;19920;-53
2023/01/05 09:50:04;;;;;;;;;;;22.50;44.00;;;;;;5073437;28;20314;-53
2023/01/05 09:52:29;;;;;;;;;;;22.60;44.00;;;;;;5072303;28;20376;-53
2023/01/05 09:54:55;;;;;;;;;;;22.60;44.00;;;;;;5071406;28;19918;-53
2023/01/05 09:57:21;;;;;;;;;;;22.60;44.10;;;;;;5067340;28;20311;-54
2023/01/05 09:59:47;;;;;;;;;;;22.60;44.30;;;;;;5066654;28;20297;-53
2023/01/05 10:02:13;;;;;;;;;;;22.60;44.50;;;;;;5066333;28;20397;-53
2023/01/05 10:04:38;;;;;;;;;;;22.60;44.40;;;;;;5072009;28;20266;-53
2023/01/05 10:07:05;;;;;;;;;;;22.70;44.30;;;;;;5068766;28;19917;-53
2023/01/05 10:09:32;;;;;;;;;;;22.70;44.20;;;;;;5076601;28;20173;-53
2023/01/05 10:14:45;;;;;;;;;;;22.70;44.40;;;;;;5068298;28;19925;-51
2023/01/05 10:17:12;;;;;;;;;;;22.70;44.20;;;;;;5064156;28;20380;-52
2023/01/05 10:19:37;;;;;;;;;;;22.70;44.20;;;;;;5066002;28;19909;-51
2023/01/05 10:22:12;;;;;;;;;;;22.70;44.20;;;;;;5069150;28;19934;-52
2023/01/05 10:24:43;;;;;;;;;;;22.70;45.10;;;;;;5064030;28;19923;-52
2023/01/05 10:27:20;;;;;;;;;;;22.60;44.60;;;;;;5094489;28;19956;-52
2023/01/05 10:29:46;;;;;;;;;;;22.60;44.60;;;;;;5061076;28;19928;-51
2023/01/05 10:32:20;;;;;;;;;;;22.60;44.70;;;;;;5068318;28;19920;-53
2023/01/05 10:34:48;;;;;;;;;;;22.60;44.60;;;;;;5062649;28;21227;-54
2023/01/05 10:37:29;;;;;;;;;;;22.60;44.60;;;;;;5064129;28;19917;-53
2023/01/05 10:39:59;;;;;;;;;;;22.70;44.40;;;;;;5064965;28;19970;-53
2023/01/05 10:42:38;;;;;;;;;;;22.70;44.40;;;;;;5098336;28;19916;-54
2023/01/05 10:45:05;;;;;;;;;;;22.70;44.40;;;;;;5064547;28;20751;-53
2023/01/05 10:47:31;;;;;;;;;;;22.80;44.50;;;;;;5102174;28;19912;-53
2023/01/05 10:49:57;;;;;;;;;;;22.70;44.80;;;;;;5071105;28;20022;-53
2023/01/05 10:52:22;;;;;;;;;;;22.80;44.70;;;;;;5062447;28;20377;-53
2023/01/05 10:55:00;;;;;;;;;;;23.00;44.30;;;;;;5065044;28;20372;-53
2023/01/05 10:57:28;;;;;;;;;;;23.20;44.10;;;;;;5064038;28;19913;-53
2023/01/05 10:59:57;;;;;;;;;;;23.50;43.70;;;;;;5068817;28;20299;-53
2023/01/05 11:02:23;;;;;;;;;;;23.70;43.40;;;;;;5065320;28;19916;-59
2023/01/05 11:04:48;;;;;;;;;;;23.80;43.30;;;;;;5070358;28;20379;-53
2023/01/05 11:07:14;;;;;;;;;;;23.80;43.20;;;;;;5069460;28;19916;-52
2023/01/05 11:09:40;;;;;;;;;;;24.00;43.30;;;;;;5061553;28;19955;-53
2023/01/05 11:12:05;;;;;;;;;;;24.00;43.20;;;;;;5067717;28;20015;-53
2023/01/05 11:14:32;;;;;;;;;;;24.00;43.10;;;;;;5055900;28;19920;-53
2023/01/05 11:17:01;;;;;;;;;;;24.10;43.20;;;;;;5077558;28;19913;-53
2023/01/05 11:19:30;;;;;;;;;;;24.10;43.00;;;;;;5066076;28;19923;-53
2023/01/05 11:21:56;;;;;;;;;;;24.10;43.00;;;;;;5103700;28;20356;-52
2023/01/05 11:24:24;;;;;;;;;;;24.20;42.90;;;;;;5071253;28;19966;-53
2023/01/05 11:26:50;;;;;;;;;;;24.10;42.70;;;;;;5072373;28;20356;-53
2023/01/05 11:29:17;;;;;;;;;;;24.10;42.90;;;;;;5077911;28;19920;-53
2023/01/05 11:31:43;;;;;;;;;;;24.20;42.90;;;;;;5092400;28;19957;-53
2023/01/05 11:34:12;;;;;;;;;;;24.20;43.00;;;;;;5063974;28;20369;-53
2023/01/05 11:36:37;;;;;;;;;;;24.20;43.10;;;;;;5079693;28;19939;-53
2023/01/05 11:39:03;;;;;;;;;;;24.20;43.30;;;;;;5071931;28;19917;-53
2023/01/05 11:41:28;;;;;;;;;;;24.10;43.40;;;;;;5071908;28;19909;-53
2023/01/05 11:43:54;;;;;;;;;;;24.10;43.30;;;;;;5066411;28;19924;-52
2023/01/05 11:46:19;;;;;;;;;;;24.20;43.30;;;;;;5065107;28;20027;-53
2023/01/05 11:48:49;;;;;;;;;;;24.20;43.20;;;;;;5079423;28;19947;-52
2023/01/05 11:51:34;;;;;;;;;;;24.30;43.20;;;;;;5058840;28;20451;-53
2023/01/05 11:53:59;;;;;;;;;;;24.30;43.10;;;;;;5072061;28;19924;-52
2023/01/05 11:56:25;;;;;;;;;;;24.40;43.00;;;;;;5103690;28;19917;-52
2023/01/05 11:58:54;;;;;;;;;;;24.40;43.00;;;;;;5104258;28;19908;-52
2023/01/05 12:01:49;;;;;;;;;;;24.40;43.00;;;;;;5071605;28;19916;-53
2023/01/05 12:04:17;;;;;;;;;;;24.50;43.00;;;;;;5070894;28;19920;-53
2023/01/05 12:07:01;;;;;;;;;;;24.50;43.10;;;;;;5072137;28;19909;-53
2023/01/05 12:09:30;;;;;;;;;;;24.50;43.00;;;;;;5071259;28;19969;-53
2023/01/05 12:12:09;;;;;;;;;;;24.50;42.90;;;;;;5082096;28;19915;-52
2023/01/05 12:14:45;;;;;;;;;;;24.50;43.10;;;;;;5071102;28;19921;-53
2023/01/05 12:17:14;;;;;;;;;;;24.40;43.10;;;;;;5062336;28;19915;-52
2023/01/05 12:19:46;;;;;;;;;;;24.50;43.10;;;;;;5067069;28;19924;-53
2023/01/05 12:22:12;;;;;;;;;;;24.50;43.00;;;;;;5052387;28;20004;-53
2023/01/05 12:24:40;;;;;;;;;;;24.60;43.10;;;;;;5072089;28;19955;-53
2023/01/05 12:27:28;;;;;;;;;;;24.60;43.10;;;;;;5069667;28;19996;-53
2023/01/05 12:30:09;;;;;;;;;;;24.60;42.90;;;;;;5063943;28;19923;-52
2023/01/05 12:32:41;;;;;;;;;;;24.50;42.90;;;;;;5064857;28;19916;-53
2023/01/05 12:35:16;;;;;;;;;;;24.50;42.90;;;;;;5064920;28;19912;-53
2023/01/05 12:37:59;;;;;;;;;;;24.50;42.90;;;;;;5071512;28;19916;-53
2023/01/05 12:40:24;;;;;;;;;;;24.50;43.10;;;;;;5066557;28;20534;-52
2023/01/05 12:42:53;;;;;;;;;;;24.50;43.10;;;;;;5072511;28;19948;-53
2023/01/05 12:45:18;;;;;;;;;;;24.60;43.10;;;;;;5072598;28;20486;-53
2023/01/05 12:47:50;;;;;;;;;;;24.50;43.10;;;;;;5076377;28;19967;-53
2023/01/05 12:50:26;;;;;;;;;;;24.60;43.20;;;;;;5074075;28;19920;-53
2023/01/05 12:52:57;;;;;;;;;;;24.60;43.10;;;;;;5083478;28;19919;-53
2023/01/05 12:55:23;;;;;;;;;;;24.60;43.10;;;;;;5087477;28;19908;-52
2023/01/05 12:57:51;;;;;;;;;;;24.70;43.00;;;;;;5078089;28;20444;-53
2023/01/05 13:00:17;;;;;;;;;;;24.70;43.00;;;;;;5104204;28;20302;-53
2023/01/05 13:03:01;;;;;;;;;;;24.70;43.00;;;;;;5079579;28;20003;-53
2023/01/05 13:05:35;;;;;;;;;;;24.70;43.00;;;;;;5074476;28;19931;-53
2023/01/05 13:08:14;;;;;;;;;;;24.70;42.90;;;;;;5073341;28;19923;-52
2023/01/05 13:10:59;;;;;;;;;;;24.70;43.00;;;;;;5072619;28;19924;-51
2023/01/05 13:13:27;;;;;;;;;;;24.70;43.00;;;;;;5070905;28;19919;-53
2023/01/05 13:15:55;;;;;;;;;;;24.70;43.00;;;;;;5075321;28;19919;-53
2023/01/05 13:18:22;;;;;;;;;;;24.70;43.00;;;;;;5067871;28;20003;-53
2023/01/05 13:20:49;;;;;;;;;;;24.70;43.00;;;;;;5073447;28;20325;-52
2023/01/05 13:23:16;;;;;;;;;;;24.70;43.00;;;;;;5075512;28;19931;-53
2023/01/05 13:25:46;;;;;;;;;;;24.80;43.20;;;;;;5074858;28;19954;-53
2023/01/05 13:28:21;;;;;;;;;;;24.70;43.20;;;;;;5055369;28;20373;-53
2023/01/05 13:30:53;;;;;;;;;;;24.80;43.20;;;;;;5068217;28;20060;-53
2023/01/05 13:33:38;;;;;;;;;;;24.70;43.20;;;;;;5107511;28;19967;-53
2023/01/05 13:36:03;;;;;;;;;;;24.80;43.30;;;;;;5061472;28;19916;-52
2023/01/05 13:38:31;;;;;;;;;;;24.80;43.30;;;;;;5073493;28;19921;-53
2023/01/05 13:41:02;;;;;;;;;;;24.80;43.30;;;;;;5073548;28;20011;-52
2023/01/05 13:43:33;;;;;;;;;;;24.80;43.20;;;;;;5069094;28;19913;-53
2023/01/05 13:46:17;;;;;;;;;;;24.80;43.30;;;;;;5068742;28;19916;-52
2023/01/05 13:48:42;;;;;;;;;;;24.80;43.30;;;;;;5074448;28;20024;-52
2023/01/05 13:51:17;;;;;;;;;;;24.80;43.40;;;;;;5074687;28;19967;-53
2023/01/05 13:53:42;;;;;;;;;;;24.80;43.30;;;;;;5071499;28;20011;-52
2023/01/05 13:56:11;;;;;;;;;;;24.80;43.40;;;;;;5073389;28;20474;-53
2023/01/05 13:58:42;;;;;;;;;;;24.80;43.40;;;;;;5074769;28;20000;-53
2023/01/05 14:01:09;;;;;;;;;;;24.90;43.40;;;;;;5073222;28;19999;-53
2023/01/05 14:03:38;;;;;;;;;;;24.90;43.40;;;;;;5073145;28;19916;-53
2023/01/05 14:06:13;;;;;;;;;;;24.90;43.30;;;;;;5070960;28;20677;-52
2023/01/05 14:08:39;;;;;;;;;;;24.90;43.30;;;;;;5065040;28;19920;-52
2023/01/05 14:11:09;;;;;;;;;;;24.90;43.20;;;;;;5068198;28;20372;-53
2023/01/05 14:13:39;;;;;;;;;;;25.00;43.20;;;;;;5068559;28;19920;-53
2023/01/05 14:16:24;;;;;;;;;;;25.20;42.80;;;;;;5072570;28;19987;-53
2023/01/05 14:18:50;;;;;;;;;;;25.30;42.70;;;;;;5067761;28;19940;-52
2023/01/05 14:21:36;;;;;;;;;;;25.30;42.60;;;;;;5070674;28;19916;-53
2023/01/05 14:24:01;;;;;;;;;;;25.40;42.50;;;;;;5067815;28;20008;-52
2023/01/05 14:26:47;;;;;;;;;;;25.40;42.50;;;;;;5062442;28;20008;-52
2023/01/05 14:29:12;;;;;;;;;;;25.40;42.50;;;;;;5065419;28;20388;-53
2023/01/05 14:31:37;;;;;;;;;;;25.40;42.50;;;;;;5097265;27;19990;-53
2023/01/05 14:34:04;;;;;;;;;;;25.40;42.70;;;;;;5068214;28;19920;-53
2023/01/05 14:36:35;;;;;;;;;;;25.40;42.80;;;;;;5070258;28;20360;-52
2023/01/05 14:39:02;;;;;;;;;;;25.30;42.80;;;;;;5072081;28;19916;-52
2023/01/05 14:41:27;;;;;;;;;;;25.40;42.80;;;;;;5065948;28;19922;-53
2023/01/05 14:43:56;;;;;;;;;;;25.40;42.90;;;;;;5057778;28;20420;-52
2023/01/05 14:46:22;;;;;;;;;;;25.40;42.90;;;;;;5065633;28;19913;-52
2023/01/05 14:49:00;;;;;;;;;;;25.40;42.70;;;;;;5071946;28;19915;-52
2023/01/05 14:51:27;;;;;;;;;;;25.40;42.50;;;;;;5057767;28;19962;-52
2023/01/05 14:53:54;;;;;;;;;;;25.40;42.60;;;;;;5072608;28;20349;-52
2023/01/05 14:56:20;;;;;;;;;;;25.50;42.70;;;;;;5071621;28;20699;-53